This is the latest recevied weather packets stored in our database for station/object NI4CE-11. If no packets are shown the sender has not sent any weather packets the latest 10 day(s).
| Time | Temp. | Humidity | Pressure | Rain* | Wind** | Luminosity | Snow |
|---|---|---|---|---|---|---|---|
| 1777871696 | 20° C | 100% | 1016.7 hPa | 0 mm | - | - | - |
| 1777871396 | 19.44° C | 100% | 1016.7 hPa | 0 mm | - | - | - |
| 1777871096 | 18.89° C | 100% | 1016.6 hPa | 0 mm | - | - | - |
| 1777870796 | 18.89° C | 100% | 1016.7 hPa | 0 mm | - | - | - |
| 1777870496 | 18.89° C | 100% | 1017 hPa | 0 mm | - | - | - |
| 1777870196 | 18.89° C | 100% | 1017.1 hPa | 0 mm | - | - | - |
| 1777869896 | 19.44° C | 100% | 1017.2 hPa | 0 mm | - | - | - |
| 1777869647 | 20° C | 100% | 1017.6 hPa | 0 mm | - | - | - |
| 1777869596 | 18.89° C | 100% | 1017.3 hPa | 0 mm | - | - | - |
| 1777869296 | 19.44° C | 100% | 1017.4 hPa | 0 mm | - | - | - |
| 1777869225 | 20.56° C | 100% | 1017.5 hPa | 0 mm | - | - | - |
| 1777868996 | 20.56° C | 100% | 1017.5 hPa | 0 mm | - | - | - |
| 1777868696 | 20° C | 100% | 1017.6 hPa | 0 mm | - | - | - |
| 1777868504 | 21.67° C | 100% | 1017.7 hPa | 0 mm | - | - | - |
| 1777868396 | 21.11° C | 100% | 1017.6 hPa | 0 mm | - | - | - |
| 1777868096 | 21.67° C | 100% | 1017.7 hPa | 0 mm | - | - | - |
| 1777867941 | 20° C | 100% | 1017.7 hPa | 0 mm | - | - | - |
| 1777867796 | 20° C | 100% | 1017.7 hPa | 0 mm | - | - | - |
| 1777867496 | 20.56° C | 100% | 1017.7 hPa | 0 mm | - | - | - |
| 1777867255 | 21.67° C | 100% | 1017.8 hPa | 0 mm | - | - | - |
| 1777867196 | 21.11° C | 100% | 1017.7 hPa | 0 mm | - | - | - |
| 1777866896 | 20° C | 100% | 1017.7 hPa | 0 mm | - | - | - |
| 1777866596 | 21.67° C | 100% | 1017.8 hPa | 0 mm | - | - | - |
| 1777866492 | 20° C | 100% | 1017.6 hPa | 0 mm | - | - | - |
| 1777866296 | 21.11° C | 100% | 1017.7 hPa | 0 mm | - | - | - |
* Rain latest hour (hover to see other rain measurements)
** Current wind speed in m/s (hover to see current wind gust speed)